Time;durP1;ratioP1;P1;durP2;ratioP2;P2;SDS_P1;SDS_P2;PMS_P1;PMS_P2;Temp;Humidity;BMP_temperature;BMP_pressure;BME280_temperature;BME280_humidity;BME280_pressure;Samples;Min_cycle;Max_cycle;Signal;HPM_P1;HPM_P2
2022/08/29 00:00:19;;;;;;;10.93;3.33;;;17.80;99.90;;;;;;5064479;28;20033;-69
2022/08/29 00:02:51;;;;;;;8.70;3.15;;;17.90;99.90;;;;;;5070690;28;20042;-69
2022/08/29 00:05:19;;;;;;;7.20;2.90;;;17.70;99.90;;;;;;5072507;28;20036;-69
2022/08/29 00:07:45;;;;;;;10.82;3.35;;;17.90;99.90;;;;;;5054692;28;20052;-69
2022/08/29 00:10:11;;;;;;;9.40;3.30;;;17.60;99.90;;;;;;5072340;28;20389;-70
2022/08/29 00:12:37;;;;;;;7.78;3.40;;;17.70;99.90;;;;;;5071881;28;20486;-69
2022/08/29 00:15:05;;;;;;;6.65;3.08;;;17.70;99.90;;;;;;5054356;28;20052;-69
2022/08/29 00:17:31;;;;;;;8.65;3.10;;;17.60;99.90;;;;;;5072529;28;20448;-69
2022/08/29 00:19:57;;;;;;;10.55;3.20;;;17.90;99.90;;;;;;5066905;28;20512;-69
2022/08/29 00:22:22;;;;;;;9.90;3.45;;;17.70;99.90;;;;;;5072198;28;20044;-69
2022/08/29 00:24:48;;;;;;;13.43;3.60;;;17.70;99.90;;;;;;5072375;28;20040;-69
2022/08/29 00:27:14;;;;;;;9.15;2.95;;;17.70;99.90;;;;;;5054620;28;20507;-69
2022/08/29 00:29:39;;;;;;;7.57;3.28;;;17.70;99.90;;;;;;5071859;28;20048;-69
2022/08/29 00:32:05;;;;;;;11.32;3.17;;;17.60;99.90;;;;;;5063182;28;20382;-69
2022/08/29 00:34:31;;;;;;;9.57;3.20;;;17.60;99.90;;;;;;5055219;28;20040;-69
2022/08/29 00:36:56;;;;;;;8.57;3.08;;;17.60;99.90;;;;;;5054080;28;20044;-69
2022/08/29 00:39:22;;;;;;;7.50;3.10;;;17.70;99.90;;;;;;5064150;28;20515;-69
2022/08/29 00:41:48;;;;;;;9.95;3.30;;;17.60;99.90;;;;;;5067203;28;20041;-69
2022/08/29 00:44:16;;;;;;;8.13;2.83;;;17.60;99.90;;;;;;5055439;28;20381;-69
2022/08/29 00:46:42;;;;;;;10.27;2.92;;;17.60;99.90;;;;;;5071808;28;20049;-69
2022/08/29 00:49:22;;;;;;;7.50;2.70;;;17.60;99.90;;;;;;5064089;28;20041;-69
2022/08/29 00:51:48;;;;;;;10.00;3.33;;;17.60;99.90;;;;;;5075946;28;20076;-69
2022/08/29 00:54:14;;;;;;;8.40;2.85;;;17.80;99.90;;;;;;5075501;28;20131;-69
2022/08/29 00:56:41;;;;;;;7.88;2.60;;;17.70;99.90;;;;;;5074601;28;20072;-69
2022/08/29 00:59:15;;;;;;;9.20;2.80;;;17.70;99.90;;;;;;5074359;28;20040;-70
2022/08/29 01:01:41;;;;;;;9.50;3.05;;;17.70;99.90;;;;;;5057263;28;20106;-69
2022/08/29 01:04:09;;;;;;;7.80;2.72;;;17.70;99.90;;;;;;5047623;28;20049;-69
2022/08/29 01:06:36;;;;;;;14.15;2.65;;;17.90;99.90;;;;;;5053141;28;20037;-69
2022/08/29 01:09:03;;;;;;;8.35;2.67;;;17.70;99.90;;;;;;5080212;28;20099;-69
2022/08/29 01:14:19;;;;;;;6.68;2.40;;;17.60;99.90;;;;;;5061440;28;20056;-69
2022/08/29 01:16:47;;;;;;;7.25;2.33;;;17.60;99.90;;;;;;5075836;28;20044;-69
2022/08/29 01:19:40;;;;;;;7.45;2.50;;;17.80;99.90;;;;;;5075570;28;20151;-69
2022/08/29 01:22:11;;;;;;;9.07;2.90;;;17.60;99.90;;;;;;5027221;28;20057;-69
2022/08/29 01:24:39;;;;;;;8.00;2.40;;;17.80;99.90;;;;;;5071536;28;20353;-69
2022/08/29 01:27:05;;;;;;;7.75;2.47;;;17.70;99.90;;;;;;5019760;28;20111;-69
2022/08/29 01:29:31;;;;;;;12.65;2.35;;;17.60;99.90;;;;;;5054306;28;20084;-69
2022/08/29 01:31:56;;;;;;;7.80;2.53;;;17.70;99.90;;;;;;5063188;28;20056;-69
2022/08/29 01:34:23;;;;;;;7.53;2.30;;;17.50;99.90;;;;;;5075343;28;20044;-69
2022/08/29 01:36:52;;;;;;;6.85;2.72;;;17.60;99.90;;;;;;5056993;28;20072;-69
2022/08/29 01:39:20;;;;;;;6.25;2.50;;;17.60;99.90;;;;;;5075312;28;20033;-69
2022/08/29 01:41:47;;;;;;;8.13;2.42;;;17.60;99.90;;;;;;5074652;28;20053;-70
2022/08/29 01:44:18;;;;;;;7.78;2.58;;;17.60;99.90;;;;;;5057510;28;20047;-69
2022/08/29 01:46:47;;;;;;;8.68;2.30;;;17.80;99.90;;;;;;5056354;28;20051;-69
2022/08/29 01:49:14;;;;;;;8.48;2.72;;;17.50;99.90;;;;;;5074801;28;20546;-69
2022/08/29 01:51:40;;;;;;;8.25;2.60;;;17.60;99.90;;;;;;5074363;28;20068;-69
2022/08/29 01:54:09;;;;;;;8.35;2.30;;;17.60;99.90;;;;;;5040351;28;20048;-69
2022/08/29 01:56:37;;;;;;;8.60;2.30;;;17.70;99.90;;;;;;5074872;28;20040;-69
2022/08/29 01:59:06;;;;;;;9.07;2.80;;;17.60;99.90;;;;;;5074917;28;20044;-69
2022/08/29 02:01:35;;;;;;;6.55;2.47;;;17.60;99.90;;;;;;5073532;28;20037;-70
2022/08/29 02:04:00;;;;;;;12.32;2.70;;;17.60;99.90;;;;;;5075046;28;20101;-69
2022/08/29 02:06:27;;;;;;;7.20;2.30;;;17.60;99.90;;;;;;5074715;28;20044;-69
2022/08/29 02:08:53;;;;;;;11.27;2.80;;;17.50;99.90;;;;;;5074891;28;20095;-70
2022/08/29 02:11:20;;;;;;;7.47;2.65;;;17.60;99.90;;;;;;5056758;28;20049;-69
2022/08/29 02:13:48;;;;;;;6.70;2.42;;;17.60;99.90;;;;;;5075088;28;20045;-69
2022/08/29 02:16:16;;;;;;;6.07;2.60;;;17.80;99.90;;;;;;5067500;28;20425;-69
2022/08/29 02:18:41;;;;;;;10.40;2.60;;;17.50;99.90;;;;;;5047236;28;20099;-69
2022/08/29 02:21:09;;;;;;;8.90;2.90;;;17.50;99.90;;;;;;5069702;28;20492;-69
2022/08/29 02:23:36;;;;;;;9.68;2.50;;;17.60;99.90;;;;;;5074830;28;20060;-69
2022/08/29 02:26:03;;;;;;;9.70;2.78;;;17.50;99.90;;;;;;5071521;28;20048;-70
2022/08/29 02:28:30;;;;;;;6.97;2.53;;;17.50;99.90;;;;;;5055375;28;20127;-69
2022/08/29 02:30:56;;;;;;;6.50;2.47;;;17.50;99.90;;;;;;5074466;28;20392;-69
2022/08/29 02:33:22;;;;;;;9.10;2.40;;;17.50;99.90;;;;;;5072505;28;20059;-70
2022/08/29 02:35:48;;;;;;;7.78;2.35;;;17.50;99.90;;;;;;5072739;28;20032;-69
2022/08/29 02:38:14;;;;;;;9.43;2.63;;;17.50;99.90;;;;;;5074079;28;20450;-69
2022/08/29 02:40:41;;;;;;;8.25;2.70;;;17.50;99.90;;;;;;5073943;28;20132;-69
2022/08/29 02:43:07;;;;;;;8.35;2.53;;;17.50;99.90;;;;;;5074220;28;20048;-69
2022/08/29 02:45:37;;;;;;;9.18;2.78;;;17.90;99.90;;;;;;5072635;28;20395;-69
2022/08/29 02:48:03;;;;;;;10.85;3.03;;;17.40;99.90;;;;;;5073711;28;20040;-69
2022/08/29 02:50:29;;;;;;;8.45;2.63;;;17.40;99.90;;;;;;5074344;28;20106;-69
2022/08/29 02:52:55;;;;;;;8.93;2.70;;;17.40;99.90;;;;;;5073347;28;20048;-69
2022/08/29 02:55:22;;;;;;;9.43;3.05;;;17.40;99.90;;;;;;5073125;28;20048;-69
2022/08/29 02:57:48;;;;;;;9.82;2.90;;;17.60;99.90;;;;;;5055697;28;20036;-69
2022/08/29 03:00:17;;;;;;;8.57;2.80;;;17.30;99.90;;;;;;5073714;28;20546;-69
2022/08/29 03:02:46;;;;;;;9.52;2.80;;;17.30;99.90;;;;;;5071736;28;20473;-69
2022/08/29 03:05:12;;;;;;;7.30;2.65;;;17.30;99.90;;;;;;5068968;28;20044;-69
2022/08/29 03:07:38;;;;;;;12.85;2.80;;;17.30;99.90;;;;;;5071562;28;20399;-69
2022/08/29 03:10:06;;;;;;;12.00;3.28;;;17.30;99.90;;;;;;5071393;28;20127;-69
2022/08/29 03:12:32;;;;;;;10.75;2.53;;;17.30;99.90;;;;;;5055678;28;20243;-69
2022/08/29 03:14:58;;;;;;;9.15;2.92;;;17.30;99.90;;;;;;5065058;28;20032;-69
2022/08/29 03:17:24;;;;;;;9.25;2.70;;;17.30;99.90;;;;;;5074013;28;20044;-69
2022/08/29 03:19:49;;;;;;;11.15;2.67;;;17.30;99.90;;;;;;5073122;28;20523;-69
2022/08/29 03:22:15;;;;;;;8.50;2.50;;;17.30;99.90;;;;;;5073550;28;20058;-69
2022/08/29 03:24:41;;;;;;;11.38;3.10;;;17.30;99.90;;;;;;5072978;28;20037;-69
2022/08/29 03:27:06;;;;;;;14.13;2.67;;;17.30;99.90;;;;;;5073336;28;20045;-69
2022/08/29 03:29:32;;;;;;;9.75;2.50;;;17.40;99.90;;;;;;5073027;28;20048;-69
2022/08/29 03:31:58;;;;;;;12.50;2.70;;;17.40;99.90;;;;;;5055393;28;20044;-69
2022/08/29 03:34:26;;;;;;;5.45;2.30;;;17.40;99.90;;;;;;5072157;28;20381;-69
2022/08/29 03:36:52;;;;;;;7.63;2.90;;;17.30;99.90;;;;;;5072689;28;20047;-69
2022/08/29 03:39:18;;;;;;;7.13;2.15;;;17.30;99.90;;;;;;5072907;28;20036;-69
2022/08/29 03:41:43;;;;;;;8.48;2.63;;;17.40;99.90;;;;;;5047459;28;20057;-69
2022/08/29 03:44:09;;;;;;;8.95;2.47;;;17.50;99.90;;;;;;5040138;28;20075;-69
2022/08/29 03:46:36;;;;;;;7.35;2.42;;;17.30;99.90;;;;;;5071683;28;20040;-70
2022/08/29 03:49:02;;;;;;;8.18;2.20;;;17.40;99.90;;;;;;5054613;28;20048;-69
2022/08/29 03:51:30;;;;;;;10.98;2.85;;;17.40;99.90;;;;;;5072393;28;20108;-69
2022/08/29 03:53:56;;;;;;;6.88;2.28;;;17.30;99.90;;;;;;5072553;28;20045;-69
2022/08/29 03:56:23;;;;;;;10.32;2.58;;;17.40;99.90;;;;;;5069979;28;20451;-69
2022/08/29 03:58:49;;;;;;;7.28;2.28;;;17.40;99.90;;;;;;5053241;28;20487;-69
2022/08/29 04:01:17;;;;;;;7.43;2.30;;;17.40;99.90;;;;;;5071644;28;20357;-69
2022/08/29 04:03:42;;;;;;;6.65;2.50;;;17.30;99.90;;;;;;5072774;28;20044;-69
2022/08/29 04:06:08;;;;;;;9.35;2.35;;;17.30;99.90;;;;;;5072911;28;20377;-69
2022/08/29 04:08:34;;;;;;;8.13;2.40;;;17.90;99.90;;;;;;5054343;28;20032;-69
2022/08/29 04:10:59;;;;;;;13.68;3.03;;;17.50;99.90;;;;;;5072250;28;20117;-69
2022/08/29 04:13:25;;;;;;;8.63;2.40;;;17.30;99.90;;;;;;5054594;28;20044;-69
2022/08/29 04:15:52;;;;;;;10.05;2.20;;;17.30;99.90;;;;;;5062353;28;20064;-70
2022/08/29 04:18:18;;;;;;;6.97;2.25;;;17.30;99.90;;;;;;5067981;28;20092;-69
2022/08/29 04:20:44;;;;;;;12.65;2.47;;;17.30;99.90;;;;;;5069128;28;20377;-70
2022/08/29 04:23:12;;;;;;;10.88;2.50;;;17.40;99.90;;;;;;5048318;28;20055;-69
2022/08/29 04:25:39;;;;;;;10.63;2.78;;;17.80;99.90;;;;;;5067905;28;20050;-69
2022/08/29 04:28:07;;;;;;;8.77;2.38;;;17.30;99.90;;;;;;5069875;28;20040;-69
2022/08/29 04:30:35;;;;;;;9.45;2.67;;;17.20;99.90;;;;;;5051733;28;20080;-69
2022/08/29 04:33:00;;;;;;;11.07;2.47;;;18.00;99.90;;;;;;5052312;28;20462;-69
2022/08/29 04:35:26;;;;;;;10.65;2.50;;;17.20;99.90;;;;;;5052500;28;20064;-69
2022/08/29 04:37:52;;;;;;;8.23;2.58;;;17.30;99.90;;;;;;5053974;28;20045;-70
2022/08/29 04:40:20;;;;;;;8.95;2.42;;;17.20;99.90;;;;;;5062709;28;20102;-70
2022/08/29 04:42:46;;;;;;;10.40;2.50;;;17.20;99.90;;;;;;5072091;28;20052;-69
2022/08/29 04:45:14;;;;;;;12.50;2.85;;;17.30;99.90;;;;;;5071649;28;20044;-69
2022/08/29 04:47:41;;;;;;;9.23;2.85;;;17.20;99.90;;;;;;5071232;28;20070;-70
2022/08/29 04:50:10;;;;;;;8.52;2.28;;;17.20;99.90;;;;;;5054143;28;20098;-70
2022/08/29 04:52:36;;;;;;;9.20;2.78;;;17.30;99.90;;;;;;5061085;28;20501;-70
2022/08/29 04:55:03;;;;;;;7.57;2.30;;;17.30;99.90;;;;;;5071602;28;20120;-70
2022/08/29 04:57:28;;;;;;;9.38;2.40;;;17.30;99.90;;;;;;5066889;28;20396;-69
2022/08/29 04:59:55;;;;;;;7.97;2.70;;;17.30;99.90;;;;;;5058928;28;20117;-70
2022/08/29 05:02:21;;;;;;;10.45;2.30;;;17.30;99.90;;;;;;5071414;28;20041;-70
2022/08/29 05:04:51;;;;;;;10.80;2.78;;;17.30;99.90;;;;;;5053757;28;20048;-70
2022/08/29 05:07:22;;;;;;;9.60;2.55;;;17.40;99.90;;;;;;5053917;28;20051;-70
2022/08/29 05:09:59;;;;;;;11.30;2.50;;;17.40;99.90;;;;;;5071561;28;20046;-70
2022/08/29 05:12:27;;;;;;;10.02;2.47;;;17.40;99.90;;;;;;5071765;28;20045;-69
2022/08/29 05:14:53;;;;;;;8.90;2.53;;;17.40;99.90;;;;;;5070451;28;20044;-70
2022/08/29 05:17:19;;;;;;;7.13;2.42;;;17.50;99.90;;;;;;5071413;28;20411;-69
2022/08/29 05:19:45;;;;;;;8.32;3.30;;;17.80;99.90;;;;;;5071189;28;20086;-70
2022/08/29 05:22:15;;;;;;;11.00;2.53;;;17.50;99.90;;;;;;5070999;28;20078;-70
2022/08/29 05:24:40;;;;;;;7.57;2.50;;;17.50;99.90;;;;;;5071442;28;20084;-70
2022/08/29 05:27:13;;;;;;;7.18;2.55;;;17.50;99.90;;;;;;5070889;28;20164;-70
2022/08/29 05:29:40;;;;;;;8.10;2.78;;;17.50;99.90;;;;;;5037128;28;20040;-70
2022/08/29 05:32:09;;;;;;;7.85;2.33;;;17.60;99.90;;;;;;5071191;28;20044;-70
2022/08/29 05:34:35;;;;;;;6.80;2.38;;;17.70;99.90;;;;;;5072474;28;20404;-70
2022/08/29 05:37:03;;;;;;;10.05;2.85;;;17.60;99.90;;;;;;5074572;28;20051;-70
2022/08/29 05:39:29;;;;;;;13.57;2.75;;;17.60;99.90;;;;;;5075548;28;20063;-70
2022/08/29 05:41:56;;;;;;;9.55;2.50;;;17.60;99.90;;;;;;5070008;28;20053;-70
2022/08/29 05:44:21;;;;;;;6.93;2.33;;;17.70;99.90;;;;;;5060090;28;20461;-70
2022/08/29 05:46:47;;;;;;;9.50;2.58;;;17.70;99.90;;;;;;5075167;28;20124;-70
2022/08/29 05:49:13;;;;;;;9.40;2.47;;;17.60;99.90;;;;;;5060391;28;20068;-70
2022/08/29 05:51:39;;;;;;;9.23;2.63;;;18.10;99.90;;;;;;5067504;28;20048;-70
2022/08/29 05:54:06;;;;;;;6.95;2.25;;;17.60;99.90;;;;;;5062928;28;20041;-70
2022/08/29 05:56:31;;;;;;;8.70;2.38;;;17.60;99.90;;;;;;5057249;28;20119;-70
2022/08/29 05:58:57;;;;;;;7.60;2.50;;;17.70;99.90;;;;;;5063950;28;20469;-70
2022/08/29 06:01:25;;;;;;;14.70;2.92;;;17.70;99.90;;;;;;5065562;28;20116;-70
2022/08/29 06:03:52;;;;;;;7.63;2.60;;;17.70;99.90;;;;;;5041188;28;20041;-70
2022/08/29 06:06:22;;;;;;;11.35;2.50;;;17.90;99.90;;;;;;5054219;28;20056;-69
2022/08/29 06:08:48;;;;;;;6.72;2.85;;;17.80;99.90;;;;;;5055709;28;20037;-70
2022/08/29 06:11:27;;;;;;;8.25;2.38;;;17.80;99.90;;;;;;5040573;28;20433;-70
2022/08/29 06:13:53;;;;;;;8.70;2.60;;;17.80;99.90;;;;;;5054984;28;20041;-70
2022/08/29 06:16:21;;;;;;;8.90;2.50;;;17.90;99.90;;;;;;5068538;28;20511;-70
2022/08/29 06:18:47;;;;;;;9.18;2.63;;;17.90;99.90;;;;;;5053383;28;20055;-69
2022/08/29 06:21:15;;;;;;;6.45;2.30;;;17.90;99.90;;;;;;5054420;28;20143;-70
2022/08/29 06:23:42;;;;;;;8.82;2.65;;;18.00;99.90;;;;;;5051588;28;20096;-70
2022/08/29 06:26:09;;;;;;;11.05;3.10;;;18.00;99.90;;;;;;5074418;28;20146;-69
2022/08/29 06:28:37;;;;;;;9.32;3.05;;;18.10;99.90;;;;;;5074789;28;20041;-70
2022/08/29 06:31:11;;;;;;;8.27;2.75;;;18.10;99.90;;;;;;5074264;28;20052;-69
2022/08/29 06:33:36;;;;;;;11.60;2.90;;;18.10;99.90;;;;;;5073891;28;20040;-70
2022/08/29 06:36:04;;;;;;;13.30;3.50;;;18.30;99.90;;;;;;5074635;28;20098;-70
2022/08/29 06:38:30;;;;;;;11.88;2.95;;;18.40;99.90;;;;;;5039225;28;20439;-70
2022/08/29 06:40:56;;;;;;;7.50;3.03;;;18.40;99.90;;;;;;5050225;28;20076;-70
2022/08/29 06:43:21;;;;;;;11.32;3.78;;;18.40;99.90;;;;;;5045292;28;20507;-69
2022/08/29 06:45:47;;;;;;;12.40;2.90;;;18.50;99.90;;;;;;5036042;28;20391;-70
2022/08/29 06:48:13;;;;;;;13.23;3.30;;;18.50;99.90;;;;;;5070905;28;20068;-70
2022/08/29 06:50:39;;;;;;;13.23;2.85;;;18.60;99.90;;;;;;5047598;28;20067;-69
2022/08/29 06:53:09;;;;;;;14.23;3.55;;;18.60;99.90;;;;;;5067096;28;20392;-69
2022/08/29 06:55:36;;;;;;;10.95;3.50;;;18.60;99.90;;;;;;5074242;28;20047;-69
2022/08/29 06:58:02;;;;;;;12.15;3.08;;;18.70;99.90;;;;;;5049739;28;20053;-70
2022/08/29 07:00:28;;;;;;;13.50;3.40;;;18.80;99.90;;;;;;5053156;28;20094;-70
2022/08/29 07:02:54;;;;;;;12.50;3.70;;;18.90;99.90;;;;;;5062687;28;20119;-70
2022/08/29 07:05:22;;;;;;;12.10;3.78;;;19.00;99.90;;;;;;5073900;28;20044;-70
2022/08/29 07:07:48;;;;;;;13.93;3.50;;;19.20;99.90;;;;;;5073831;28;20040;-70
2022/08/29 07:10:14;;;;;;;15.73;3.60;;;19.30;99.90;;;;;;5056150;28;20036;-69
2022/08/29 07:12:40;;;;;;;19.52;3.70;;;19.30;99.90;;;;;;5073382;28;20481;-70
2022/08/29 07:15:06;;;;;;;12.60;3.80;;;19.40;99.90;;;;;;5073337;28;20075;-69
2022/08/29 07:17:32;;;;;;;13.38;3.45;;;19.40;99.90;;;;;;5069036;28;20055;-69
2022/08/29 07:19:58;;;;;;;11.70;3.85;;;19.30;99.90;;;;;;5053577;28;20079;-69
2022/08/29 07:22:25;;;;;;;11.60;3.60;;;19.30;99.90;;;;;;5068706;28;20049;-69
2022/08/29 07:24:52;;;;;;;12.95;3.38;;;19.30;99.90;;;;;;5065832;28;20036;-69
2022/08/29 07:27:18;;;;;;;12.48;3.38;;;19.30;99.90;;;;;;5063609;28;20041;-70
2022/08/29 07:29:43;;;;;;;15.27;3.60;;;19.30;99.90;;;;;;5060147;28;20105;-70
2022/08/29 07:32:09;;;;;;;10.23;3.53;;;19.30;99.90;;;;;;5063975;28;20060;-69
2022/08/29 07:34:35;;;;;;;9.88;3.28;;;19.40;99.90;;;;;;5056302;28;20487;-69
2022/08/29 07:37:03;;;;;;;11.95;3.10;;;19.40;99.90;;;;;;5035042;28;20041;-69
2022/08/29 07:39:29;;;;;;;13.68;3.35;;;19.40;99.90;;;;;;5056481;28;20040;-69
2022/08/29 07:41:55;;;;;;;12.68;3.10;;;19.40;99.90;;;;;;5054419;28;20063;-70
2022/08/29 07:44:21;;;;;;;12.32;3.55;;;19.40;99.90;;;;;;5054719;28;20094;-70
2022/08/29 07:46:47;;;;;;;12.00;3.17;;;19.70;99.90;;;;;;5050493;28;20500;-70
2022/08/29 07:49:12;;;;;;;11.23;3.47;;;19.50;99.90;;;;;;5057786;28;20119;-70
2022/08/29 07:51:38;;;;;;;12.30;3.17;;;19.70;99.90;;;;;;5052615;28;20045;-70
2022/08/29 07:54:05;;;;;;;10.27;3.05;;;19.70;99.90;;;;;;5052735;28;20048;-70
2022/08/29 07:56:38;;;;;;;13.63;3.70;;;19.80;99.90;;;;;;5061728;28;20045;-70
2022/08/29 07:59:05;;;;;;;12.57;3.38;;;20.00;99.90;;;;;;5054299;28;20455;-70
2022/08/29 08:01:30;;;;;;;13.18;3.35;;;20.10;99.90;;;;;;5052600;28;20049;-70
2022/08/29 08:03:57;;;;;;;14.07;3.60;;;20.20;99.90;;;;;;5075346;28;20046;-70
2022/08/29 08:06:24;;;;;;;12.32;3.92;;;20.30;99.90;;;;;;5059725;28;20205;-70
2022/08/29 08:08:50;;;;;;;12.07;3.80;;;20.40;99.90;;;;;;5051668;28;20318;-70
2022/08/29 08:11:19;;;;;;;12.00;3.47;;;20.60;99.90;;;;;;5054376;28;20045;-70
2022/08/29 08:13:45;;;;;;;11.25;3.38;;;20.70;99.90;;;;;;5070658;28;20055;-69
2022/08/29 08:16:14;;;;;;;16.77;3.58;;;20.90;99.90;;;;;;5060173;28;20333;-70
2022/08/29 08:18:42;;;;;;;14.77;3.67;;;21.00;99.90;;;;;;5054373;28;20063;-69
2022/08/29 08:21:08;;;;;;;10.82;3.42;;;21.10;99.90;;;;;;5050773;28;20056;-67
2022/08/29 08:23:34;;;;;;;15.13;4.00;;;21.10;99.90;;;;;;5051816;28;20041;-69
2022/08/29 08:26:00;;;;;;;15.68;3.95;;;21.00;99.90;;;;;;5052369;28;20127;-68
2022/08/29 08:28:29;;;;;;;10.38;3.40;;;21.00;99.90;;;;;;5052326;28;20450;-69
2022/08/29 08:30:55;;;;;;;12.88;4.05;;;20.90;99.90;;;;;;5052114;28;20106;-68
2022/08/29 08:33:21;;;;;;;14.73;3.80;;;20.90;99.90;;;;;;5048403;28;20140;-68
2022/08/29 08:35:46;;;;;;;15.15;4.55;;;20.90;99.90;;;;;;5050891;28;20556;-69
2022/08/29 08:38:12;;;;;;;13.07;4.03;;;21.00;99.90;;;;;;5052280;28;20052;-68
2022/08/29 08:41:01;;;;;;;12.02;3.88;;;21.10;99.90;;;;;;5050762;28;20094;-68
2022/08/29 08:43:52;;;;;;;13.00;4.10;;;21.10;99.90;;;;;;5048316;28;20405;-69
2022/08/29 08:46:43;;;;;;;14.18;3.78;;;21.10;99.90;;;;;;5051259;28;20145;-68
2022/08/29 08:49:42;;;;;;;11.77;3.90;;;21.10;99.90;;;;;;5052093;28;20076;-68
2022/08/29 08:52:24;;;;;;;13.02;4.63;;;21.10;99.90;;;;;;5051650;28;20041;-69
2022/08/29 08:55:02;;;;;;;12.35;4.00;;;21.30;99.90;;;;;;5067285;28;20040;-69
2022/08/29 08:57:38;;;;;;;13.65;3.72;;;21.50;99.90;;;;;;5052044;28;20127;-69
2022/08/29 09:00:05;;;;;;;11.27;4.03;;;21.50;99.90;;;;;;5034212;28;20049;-68
2022/08/29 09:03:03;;;;;;;12.48;3.58;;;21.60;99.90;;;;;;5051977;28;20120;-69
2022/08/29 09:05:51;;;;;;;12.90;3.63;;;21.70;99.90;;;;;;5052180;28;20041;-69
2022/08/29 09:08:29;;;;;;;9.02;3.40;;;21.80;99.90;;;;;;5034092;28;20413;-68
2022/08/29 09:11:02;;;;;;;13.55;3.95;;;21.70;99.90;;;;;;5054950;28;20480;-69
2022/08/29 09:13:37;;;;;;;10.13;4.30;;;21.80;99.90;;;;;;5071123;28;20056;-69
2022/08/29 09:16:21;;;;;;;13.00;3.67;;;21.80;99.90;;;;;;5021827;28;20041;-69
2022/08/29 09:18:47;;;;;;;9.98;3.50;;;22.00;99.90;;;;;;5056247;28;20076;-69
2022/08/29 09:21:15;;;;;;;11.68;3.40;;;22.20;99.90;;;;;;5055710;28;20488;-69
2022/08/29 09:23:46;;;;;;;10.88;3.30;;;22.40;99.90;;;;;;5040775;28;20037;-69
2022/08/29 09:26:17;;;;;;;19.25;4.05;;;22.60;99.90;;;;;;5035756;28;20053;-69
2022/08/29 09:28:43;;;;;;;13.40;3.95;;;22.60;99.90;;;;;;5035837;28;20052;-69
2022/08/29 09:31:34;;;;;;;9.95;3.35;;;22.70;99.90;;;;;;5075311;28;20040;-69
2022/08/29 09:34:01;;;;;;;11.68;3.67;;;22.70;99.90;;;;;;5057560;28;20044;-68
2022/08/29 09:36:48;;;;;;;9.30;3.90;;;22.80;99.90;;;;;;5057106;28;20499;-69
2022/08/29 09:39:16;;;;;;;10.77;3.03;;;23.00;99.90;;;;;;5075271;28;20434;-69
2022/08/29 09:41:43;;;;;;;17.02;4.03;;;23.10;99.90;;;;;;5055403;28;20088;-70
2022/08/29 09:44:25;;;;;;;11.23;3.50;;;23.20;99.90;;;;;;5075121;28;20040;-70
2022/08/29 09:47:11;;;;;;;9.13;2.95;;;23.30;99.90;;;;;;5039950;28;20044;-70
2022/08/29 09:49:39;;;;;;;10.20;3.05;;;23.40;99.90;;;;;;5075181;28;20041;-70
2022/08/29 09:52:15;;;;;;;13.38;3.67;;;23.50;99.90;;;;;;5075279;28;20044;-68
2022/08/29 09:54:43;;;;;;;7.80;3.03;;;23.40;99.90;;;;;;5053911;28;20070;-67
2022/08/29 09:57:12;;;;;;;13.43;3.90;;;23.40;99.90;;;;;;5071327;28;20043;-67
2022/08/29 09:59:42;;;;;;;12.35;3.65;;;23.30;99.90;;;;;;5072111;28;20462;-67
2022/08/29 10:02:28;;;;;;;12.23;4.07;;;23.10;99.90;;;;;;5071723;28;20044;-67
2022/08/29 10:05:06;;;;;;;12.68;3.60;;;23.00;99.90;;;;;;5045457;28;20426;-67
2022/08/29 10:07:43;;;;;;;13.93;3.60;;;22.90;99.90;;;;;;5059504;28;20051;-66
2022/08/29 10:10:24;;;;;;;12.75;3.42;;;22.80;99.90;;;;;;5053872;28;20500;-67
2022/08/29 10:13:18;;;;;;;13.70;3.72;;;22.80;99.90;;;;;;5071638;28;20382;-67
2022/08/29 10:15:52;;;;;;;11.93;3.30;;;22.90;99.90;;;;;;5053087;28;20119;-67
2022/08/29 10:18:27;;;;;;;13.98;3.45;;;23.00;99.90;;;;;;5071395;28;20051;-67
2022/08/29 10:21:11;;;;;;;;;;;23.10;99.90;;;;;;5052975;28;20048;-67
2022/08/29 10:24:02;;;;;;;10.10;3.22;;;23.20;99.90;;;;;;5070581;28;19985;-68
2022/08/29 10:26:40;;;;;;;12.60;3.40;;;23.50;99.90;;;;;;5050805;28;20047;-68
2022/08/29 10:29:11;;;;;;;10.57;2.92;;;23.80;99.90;;;;;;5069233;28;20086;-67
2022/08/29 10:31:51;;;;;;;14.75;3.38;;;24.00;99.90;;;;;;5053413;28;20404;-68
2022/08/29 10:34:20;;;;;;;13.23;3.50;;;24.10;99.90;;;;;;5053988;28;20053;-68
2022/08/29 10:36:53;;;;;;;12.65;3.08;;;24.10;99.90;;;;;;5054089;28;20512;-69
2022/08/29 10:39:34;;;;;;;17.20;3.70;;;24.00;99.90;;;;;;5025673;28;20057;-68
2022/08/29 10:42:18;;;;;;;11.32;3.13;;;23.90;99.90;;;;;;5016253;28;20081;-68
2022/08/29 10:45:05;;;;;;;11.48;3.30;;;23.90;99.90;;;;;;5034162;28;20128;-70
2022/08/29 10:47:32;;;;;;;12.02;3.00;;;23.90;99.90;;;;;;5034036;28;20045;-70
2022/08/29 10:50:07;;;;;;;10.00;3.33;;;23.70;99.90;;;;;;5032867;28;20079;-71
2022/08/29 10:53:24;;;;;;;13.98;3.40;;;23.60;99.90;;;;;;5047131;28;20551;-70
2022/08/29 10:56:14;;;;;;;8.68;2.88;;;23.50;99.90;;;;;;5010972;28;20052;-70
2022/08/29 10:58:49;;;;;;;9.82;3.05;;;23.40;99.90;;;;;;5034397;28;20094;-70
2022/08/29 11:01:47;;;;;;;13.00;3.67;;;23.30;99.90;;;;;;5034047;28;20124;-70
2022/08/29 11:04:22;;;;;;;17.55;3.83;;;23.20;99.90;;;;;;5034130;28;20596;-70
2022/08/29 11:07:03;;;;;;;10.07;3.17;;;23.00;99.90;;;;;;5033914;28;20445;-71
2022/08/29 11:09:34;;;;;;;10.05;3.40;;;22.90;99.90;;;;;;5034070;28;20461;-70
2022/08/29 11:12:22;;;;;;;12.38;3.22;;;22.90;99.90;;;;;;5033678;28;20104;-70
2022/08/29 11:15:02;;;;;;;13.75;3.30;;;22.80;99.90;;;;;;5033755;28;20049;-70
2022/08/29 11:17:37;;;;;;;12.85;3.40;;;22.60;99.90;;;;;;5015996;28;20120;-70
2022/08/29 11:20:29;;;;;;;12.67;3.20;;;22.50;99.90;;;;;;5048490;28;20127;-69
2022/08/29 11:23:11;;;;;;;9.55;3.45;;;22.40;99.90;;;;;;5053376;28;20284;-70
2022/08/29 11:25:40;;;;;;;10.73;3.33;;;22.40;99.90;;;;;;5053395;28;20056;-70
2022/08/29 11:28:33;;;;;;;9.15;3.25;;;22.40;99.90;;;;;;5024988;28;20042;-70
2022/08/29 11:31:29;;;;;;;11.60;3.25;;;22.30;99.90;;;;;;5033416;28;20053;-69
2022/08/29 11:34:00;;;;;;;8.00;2.92;;;22.20;99.90;;;;;;5048100;28;20065;-68
2022/08/29 11:36:53;;;;;;;13.48;3.53;;;22.20;99.90;;;;;;5033153;28;20053;-68
2022/08/29 11:39:33;;;;;;;12.85;3.30;;;22.10;99.90;;;;;;5032393;28;20116;-69
2022/08/29 11:42:04;;;;;;;10.60;3.20;;;22.10;99.90;;;;;;5033125;28;20410;-68
2022/08/29 11:44:32;;;;;;;8.32;3.05;;;22.20;99.90;;;;;;5033227;28;20053;-70
2022/08/29 11:46:59;;;;;;;10.32;3.17;;;22.20;99.90;;;;;;5033285;28;20045;-69
2022/08/29 11:49:35;;;;;;;10.38;3.45;;;22.30;99.90;;;;;;5033233;28;20041;-69
2022/08/29 11:52:07;;;;;;;12.85;3.33;;;22.30;99.90;;;;;;5032653;28;20129;-70
2022/08/29 11:54:36;;;;;;;9.75;3.25;;;22.40;99.90;;;;;;5046707;28;20518;-69
2022/08/29 11:57:02;;;;;;;10.88;2.95;;;22.40;99.90;;;;;;5045709;28;20045;-69
2022/08/29 11:59:53;;;;;;;8.60;2.90;;;22.40;99.90;;;;;;5033353;28;20139;-69
2022/08/29 12:02:30;;;;;;;11.00;3.10;;;22.40;99.90;;;;;;5014877;28;20049;-69
2022/08/29 12:05:19;;;;;;;6.70;2.53;;;22.50;99.90;;;;;;5032776;28;20107;-70
2022/08/29 12:07:56;;;;;;;6.75;2.67;;;22.50;99.90;;;;;;5020464;28;20066;-72
2022/08/29 12:10:28;;;;;;;8.55;3.40;;;22.50;99.90;;;;;;5069849;28;20049;-72
2022/08/29 12:13:00;;;;;;;7.03;2.75;;;22.50;99.90;;;;;;5069161;28;20040;-71
2022/08/29 12:15:31;;;;;;;8.68;3.30;;;22.60;99.90;;;;;;5054295;28;20040;-73
2022/08/29 12:18:01;;;;;;;9.43;2.90;;;22.60;99.90;;;;;;5049196;28;20071;-73
2022/08/29 12:20:29;;;;;;;8.13;3.20;;;22.60;99.90;;;;;;5049647;28;20041;-71
2022/08/29 12:22:55;;;;;;;10.20;3.10;;;22.60;99.90;;;;;;5051243;28;20044;-72
2022/08/29 12:25:27;;;;;;;7.75;3.05;;;22.70;99.90;;;;;;5066657;28;20118;-68
2022/08/29 12:27:59;;;;;;;8.27;2.60;;;22.80;99.90;;;;;;5057238;28;20044;-68
2022/08/29 12:30:28;;;;;;;9.85;2.95;;;23.00;99.90;;;;;;5036854;28;20060;-68
2022/08/29 12:32:56;;;;;;;8.27;2.75;;;23.20;99.90;;;;;;5052328;28;20067;-68
2022/08/29 12:35:42;;;;;;;9.05;2.80;;;23.20;99.90;;;;;;5033627;28;20048;-68
2022/08/29 12:38:29;;;;;;;7.30;2.83;;;23.20;99.90;;;;;;5051185;28;20049;-69
2022/08/29 12:41:26;;;;;;;7.82;2.72;;;23.40;99.90;;;;;;5051689;28;20088;-69
2022/08/29 12:43:55;;;;;;;11.93;3.15;;;23.20;99.90;;;;;;5063911;28;20051;-71
2022/08/29 12:46:30;;;;;;;10.50;3.22;;;23.10;99.90;;;;;;5044267;28;20143;-69
2022/08/29 12:49:13;;;;;;;5.93;2.40;;;23.10;99.90;;;;;;5051936;28;20187;-69
2022/08/29 12:51:48;;;;;;;6.80;2.53;;;23.20;99.90;;;;;;5044436;28;20033;-68
2022/08/29 12:54:14;;;;;;;6.72;2.55;;;23.30;99.90;;;;;;5050139;28;20048;-68
2022/08/29 12:56:46;;;;;;;8.02;2.40;;;23.60;99.90;;;;;;5051772;28;20045;-69
2022/08/29 12:59:18;;;;;;;9.55;2.50;;;23.80;99.90;;;;;;5052028;28;20048;-69
2022/08/29 13:01:47;;;;;;;6.90;2.50;;;24.10;99.90;;;;;;5034221;28;20135;-69